Time;durP1;ratioP1;P1;durP2;ratioP2;P2;SDS_P1;SDS_P2;PMS_P1;PMS_P2;Temp;Humidity;BMP_temperature;BMP_pressure;BME280_temperature;BME280_humidity;BME280_pressure;Samples;Min_cycle;Max_cycle;Signal;HPM_P1;HPM_P2
2021/12/21 00:02:08;;;;;;;6.78;3.75;;;77.60;1740.80;;;;;;5055042;28;20059;-60
2021/12/21 00:04:34;;;;;;;7.90;3.65;;;77.50;1740.80;;;;;;5054975;28;20057;-60
2021/12/21 00:07:00;;;;;;;7.28;4.15;;;77.40;1766.40;;;;;;5055424;28;20119;-60
2021/12/21 00:09:26;;;;;;;10.55;3.90;;;77.40;1817.60;;;;;;5054384;28;20029;-60
2021/12/21 00:11:52;;;;;;;8.05;3.95;;;77.50;1894.40;;;;;;5055358;28;20086;-59
2021/12/21 00:14:26;;;;;;;8.65;4.35;;;77.60;1843.20;;;;;;5055721;28;20108;-59
2021/12/21 00:20:08;;;;;;;8.93;3.80;;;77.70;1766.40;;;;;;5054993;28;20111;-59
2021/12/21 00:24:57;;;;;;;10.05;4.10;;;77.50;1766.40;;;;;;5054940;28;20105;-60
2021/12/21 00:27:22;;;;;;;9.73;4.32;;;77.50;1740.80;;;;;;5054819;28;20441;-60
2021/12/21 00:29:48;;;;;;;11.38;4.82;;;77.30;1792.00;;;;;;5054699;28;20490;-60
2021/12/21 00:32:14;;;;;;;8.80;4.72;;;77.20;1817.60;;;;;;5036311;28;20073;-59
2021/12/21 00:34:40;;;;;;;8.73;4.50;;;77.10;1817.60;;;;;;5054782;28;20021;-60
2021/12/21 00:37:07;;;;;;;10.70;5.30;;;77.10;1817.60;;;;;;5054722;28;20032;-60
2021/12/21 00:39:33;;;;;;;16.92;7.22;;;77.00;1817.60;;;;;;5054429;28;20082;-59
2021/12/21 00:41:59;;;;;;;14.68;6.57;;;77.00;1817.60;;;;;;5054329;28;20429;-59
2021/12/21 00:44:24;;;;;;;19.48;7.88;;;77.20;1843.20;;;;;;5083734;28;20052;-60
2021/12/21 00:46:50;;;;;;;15.73;7.50;;;77.30;1868.80;;;;;;5094585;28;20389;-60
2021/12/21 00:49:17;;;;;;;17.35;7.15;;;77.40;1920.00;;;;;;5094506;28;20032;-60
2021/12/21 00:51:46;;;;;;;19.40;6.82;;;77.50;1843.20;;;;;;5094644;28;20419;-60
2021/12/21 00:54:13;;;;;;;17.90;7.20;;;77.50;1817.60;;;;;;5094602;28;20052;-60
2021/12/21 00:56:38;;;;;;;13.50;5.75;;;77.60;1817.60;;;;;;5094522;28;20386;-60
2021/12/21 00:59:04;;;;;;;12.50;5.90;;;77.50;1792.00;;;;;;5094671;28;20028;-59
2021/12/21 01:01:35;;;;;;;13.55;5.90;;;77.50;1792.00;;;;;;5094345;28;20043;-61
2021/12/21 01:04:03;;;;;;;20.42;6.45;;;77.50;1766.40;;;;;;5094060;28;20028;-61
2021/12/21 01:09:16;;;;;;;18.83;6.57;;;77.40;1792.00;;;;;;5094195;28;20023;-60
2021/12/21 01:11:48;;;;;;;21.02;6.50;;;77.50;1792.00;;;;;;5094583;28;20480;-61
2021/12/21 01:16:58;;;;;;;15.13;5.22;;;77.40;1766.40;;;;;;5094275;28;20028;-61
2021/12/21 01:19:32;;;;;;;15.05;5.80;;;77.30;1792.00;;;;;;5093837;28;20089;-60
2021/12/21 01:24:54;;;;;;;15.00;6.05;;;77.10;1792.00;;;;;;5094061;28;20055;-61
2021/12/21 01:32:31;;;;;;;9.10;4.47;;;77.40;1868.80;;;;;;5094065;28;20035;-60
2021/12/21 01:35:14;;;;;;;12.15;5.35;;;77.50;1817.60;;;;;;5093869;28;20024;-60
2021/12/21 01:50:50;;;;;;;13.70;5.22;;;77.60;1766.40;;;;;;5094340;28;20484;-61
2021/12/21 01:53:15;;;;;;;17.70;5.10;;;77.50;1766.40;;;;;;5093185;28;20158;-60
2021/12/21 01:55:42;;;;;;;11.05;4.85;;;77.40;1766.40;;;;;;5093411;28;20050;-61
2021/12/21 01:58:09;;;;;;;10.95;4.45;;;77.20;1792.00;;;;;;5093594;28;20028;-61
2021/12/21 02:00:35;;;;;;;12.27;5.07;;;77.30;1792.00;;;;;;5093381;28;20024;-61
2021/12/21 02:03:02;;;;;;;13.25;5.00;;;77.10;1792.00;;;;;;5093684;28;20543;-61
2021/12/21 02:05:28;;;;;;;9.60;4.15;;;77.10;1817.60;;;;;;5093594;28;20028;-61
2021/12/21 02:07:54;;;;;;;7.78;4.82;;;77.20;1843.20;;;;;;5093349;28;20028;-60
2021/12/21 02:10:20;;;;;;;9.52;5.03;;;77.40;1894.40;;;;;;5093725;28;20027;-61
2021/12/21 02:12:46;;;;;;;14.25;4.95;;;77.50;1843.20;;;;;;5093383;28;20052;-60
2021/12/21 02:15:12;;;;;;;11.05;5.32;;;77.50;1817.60;;;;;;5093595;28;20048;-60
2021/12/21 02:23:06;;;;;;;17.20;7.55;;;77.50;1792.00;;;;;;5093600;28;20035;-61
2021/12/21 02:25:50;;;;;;;18.73;6.32;;;77.50;1766.40;;;;;;5093447;28;20455;-61
2021/12/21 02:30:48;;;;;;;16.05;6.57;;;77.50;1817.60;;;;;;5093335;28;20024;-60
2021/12/21 02:33:14;;;;;;;27.70;8.20;;;77.50;1817.60;;;;;;5094692;28;20416;-59
2021/12/21 02:35:41;;;;;;;25.75;8.52;;;77.50;1766.40;;;;;;5097198;28;20082;-60
2021/12/21 02:38:07;;;;;;;26.63;8.98;;;77.50;1766.40;;;;;;5097181;28;20039;-59
2021/12/21 02:40:34;;;;;;;22.10;7.15;;;77.50;1766.40;;;;;;5096894;28;20202;-60
2021/12/21 02:43:00;;;;;;;22.70;8.23;;;77.40;1766.40;;;;;;5096884;28;20075;-60
2021/12/21 02:45:26;;;;;;;18.55;6.80;;;77.20;1792.00;;;;;;5097273;28;20452;-59
2021/12/21 02:47:52;;;;;;;20.42;6.88;;;77.20;1817.60;;;;;;5096622;28;20071;-59
2021/12/21 02:50:18;;;;;;;15.50;6.05;;;77.30;1792.00;;;;;;5096827;28;20023;-59
2021/12/21 02:52:44;;;;;;;19.17;6.00;;;77.20;1817.60;;;;;;5096966;28;20028;-58
2021/12/21 02:55:10;;;;;;;16.98;6.20;;;77.30;1868.80;;;;;;5096832;28;20068;-58
2021/12/21 02:57:36;;;;;;;18.42;7.35;;;77.40;1843.20;;;;;;5096861;28;20059;-58
2021/12/21 03:00:04;;;;;;;14.50;5.85;;;77.50;1817.60;;;;;;5097214;28;20381;-60
2021/12/21 03:02:31;;;;;;;14.55;6.55;;;77.50;1792.00;;;;;;5096550;28;20110;-58
2021/12/21 03:04:57;;;;;;;12.93;5.78;;;77.50;1766.40;;;;;;5096644;28;20028;-60
2021/12/21 03:10:12;;;;;;;14.63;5.97;;;77.50;1766.40;;;;;;5096702;28;20393;-60
2021/12/21 03:15:25;;;;;;;15.20;6.20;;;77.40;1766.40;;;;;;5096828;28;20446;-60
2021/12/21 03:17:52;;;;;;;15.07;5.87;;;77.20;1817.60;;;;;;5096311;28;20039;-60
2021/12/21 03:20:18;;;;;;;16.60;6.55;;;77.30;1766.40;;;;;;5096321;28;20032;-60
2021/12/21 03:22:44;;;;;;;13.20;5.22;;;77.10;1792.00;;;;;;5096435;28;20032;-60
2021/12/21 03:25:10;;;;;;;23.65;8.15;;;77.20;1792.00;;;;;;5077540;28;20043;-61
2021/12/21 03:27:36;;;;;;;18.35;5.93;;;77.30;1792.00;;;;;;5096495;28;20040;-61
2021/12/21 03:30:03;;;;;;;20.35;8.25;;;77.30;1817.60;;;;;;5096332;28;20366;-61
2021/12/21 03:32:29;;;;;;;17.38;6.63;;;77.30;1868.80;;;;;;5096091;28;20032;-60
2021/12/21 03:34:55;;;;;;;15.25;6.82;;;77.40;1843.20;;;;;;5095657;28;20354;-60
2021/12/21 03:37:20;;;;;;;15.80;6.38;;;77.40;1817.60;;;;;;5095804;28;20032;-60
2021/12/21 03:39:46;;;;;;;19.83;7.57;;;77.20;1792.00;;;;;;5096066;28;20361;-61
2021/12/21 03:42:14;;;;;;;14.80;6.47;;;77.20;1766.40;;;;;;5095707;28;20520;-60
2021/12/21 03:44:41;;;;;;;21.25;7.60;;;77.20;1766.40;;;;;;5094420;28;20082;-60
2021/12/21 03:47:10;;;;;;;14.75;6.65;;;77.00;1792.00;;;;;;5095677;28;20040;-60
2021/12/21 03:52:16;;;;;;;14.73;5.88;;;76.80;1817.60;;;;;;5095529;28;20032;-60
2021/12/21 03:54:45;;;;;;;14.10;7.35;;;76.80;1817.60;;;;;;5095715;28;20016;-60
2021/12/21 03:57:11;;;;;;;13.55;6.53;;;52.10;1843.20;;;;;;5095687;28;20393;-60
2021/12/21 03:59:38;;;;;;;10.73;6.30;;;52.10;1817.60;;;;;;5095474;28;20103;-60
2021/12/21 04:02:05;;;;;;;9.73;5.85;;;76.80;1817.60;;;;;;5095617;28;20415;-60
2021/12/21 04:04:31;;;;;;;10.98;5.80;;;76.80;1817.60;;;;;;5095541;28;20032;-60
2021/12/21 04:06:57;;;;;;;11.30;6.40;;;76.90;1817.60;;;;;;5096090;28;20158;-60
2021/12/21 04:09:22;;;;;;;12.90;6.30;;;76.90;1894.40;;;;;;5095250;28;20044;-59
2021/12/21 04:11:48;;;;;;;11.80;6.03;;;77.10;1894.40;;;;;;5095387;28;20035;-60
2021/12/21 04:14:16;;;;;;;10.02;5.93;;;77.10;1843.20;;;;;;5095142;28;20070;-59
2021/12/21 04:16:42;;;;;;;13.10;6.68;;;77.00;1817.60;;;;;;5095297;28;20081;-60
2021/12/21 04:19:08;;;;;;;14.18;6.90;;;77.00;1817.60;;;;;;5095018;28;20028;-60
2021/12/21 04:21:33;;;;;;;12.38;6.82;;;76.90;1792.00;;;;;;5094891;28;20098;-60
2021/12/21 04:23:59;;;;;;;9.63;5.22;;;76.80;1792.00;;;;;;5094958;28;20040;-60
2021/12/21 04:26:25;;;;;;;11.00;5.40;;;52.10;1817.60;;;;;;5094942;28;20119;-59
2021/12/21 04:28:51;;;;;;;8.40;5.38;;;52.10;1843.20;;;;;;5095076;28;20024;-59
2021/12/21 04:31:16;;;;;;;10.50;5.45;;;76.80;1817.60;;;;;;5094880;28;20401;-60
2021/12/21 04:33:43;;;;;;;9.43;5.75;;;76.80;1817.60;;;;;;5094741;28;20428;-60
2021/12/21 04:36:11;;;;;;;11.65;5.32;;;76.90;1817.60;;;;;;5094616;28;20462;-60
2021/12/21 04:38:40;;;;;;;6.72;4.45;;;76.90;1817.60;;;;;;5095454;28;20099;-61
2021/12/21 04:41:13;;;;;;;7.97;5.03;;;76.90;1792.00;;;;;;5094885;28;20449;-60
2021/12/21 04:43:39;;;;;;;17.27;8.45;;;76.80;1868.80;;;;;;5094644;28;20065;-59
2021/12/21 04:46:05;;;;;;;12.93;8.05;;;76.90;1945.60;;;;;;5094588;28;20028;-59
2021/12/21 04:48:32;;;;;;;10.93;6.90;;;77.00;1868.80;;;;;;5094712;28;20028;-59
2021/12/21 04:50:57;;;;;;;14.52;8.10;;;77.00;1843.20;;;;;;5094266;28;20024;-59
2021/12/21 04:53:24;;;;;;;12.80;7.93;;;77.00;1817.60;;;;;;5094679;28;20032;-59
2021/12/21 04:55:50;;;;;;;19.08;9.05;;;77.00;1843.20;;;;;;5093954;28;20429;-59
2021/12/21 04:58:16;;;;;;;25.65;10.25;;;76.90;1792.00;;;;;;5094435;28;20103;-59
2021/12/21 05:00:42;;;;;;;23.52;9.95;;;76.80;1817.60;;;;;;5094300;28;20109;-59
2021/12/21 05:03:08;;;;;;;22.92;10.13;;;52.10;1817.60;;;;;;5094176;28;20047;-60
2021/12/21 05:05:34;;;;;;;253.32;53.42;;;52.10;1868.80;;;;;;5094165;28;20040;-60
2021/12/21 05:08:08;;;;;;;37.55;13.82;;;77.00;2099.20;;;;;;5093964;28;20074;-67
2021/12/21 05:10:49;;;;;;;46.03;14.10;;;77.30;1971.20;;;;;;5094385;28;20038;-60
2021/12/21 05:13:17;;;;;;;35.70;12.25;;;77.40;1920.00;;;;;;5094152;28;20032;-60
2021/12/21 05:15:43;;;;;;;29.50;12.88;;;77.40;1843.20;;;;;;5094260;28;20028;-60
2021/12/21 05:18:10;;;;;;;21.02;8.98;;;77.40;1817.60;;;;;;5094248;28;20031;-60
2021/12/21 05:20:37;;;;;;;14.48;7.80;;;77.40;1817.60;;;;;;5093794;28;20351;-60
2021/12/21 05:23:02;;;;;;;18.20;11.25;;;77.30;1792.00;;;;;;5094220;28;20032;-60
2021/12/21 05:25:29;;;;;;;23.13;14.68;;;77.30;1792.00;;;;;;5093999;28;20108;-60
2021/12/21 05:27:55;;;;;;;31.55;16.08;;;77.30;1792.00;;;;;;5093593;28;20131;-59
2021/12/21 05:30:22;;;;;;;40.75;20.02;;;77.30;1792.00;;;;;;5094017;28;20444;-60
2021/12/21 05:32:49;;;;;;;33.67;18.95;;;77.30;1792.00;;;;;;5093718;28;20032;-60
2021/12/21 05:35:16;;;;;;;21.95;12.85;;;77.20;1817.60;;;;;;5093521;28;20372;-60
2021/12/21 05:37:42;;;;;;;17.00;10.02;;;77.20;1792.00;;;;;;5093928;28;20085;-60
2021/12/21 05:40:11;;;;;;;18.33;9.75;;;77.20;1817.60;;;;;;5094002;28;20420;-60
2021/12/21 05:42:38;;;;;;;12.75;7.95;;;77.20;1817.60;;;;;;5093583;28;20042;-60
2021/12/21 05:45:05;;;;;;;20.58;8.63;;;77.20;1817.60;;;;;;5093602;28;20082;-60
2021/12/21 05:47:31;;;;;;;17.17;8.85;;;77.10;1792.00;;;;;;5093841;28;20031;-60
2021/12/21 05:49:56;;;;;;;18.38;9.38;;;77.10;1817.60;;;;;;5093606;28;20031;-60
2021/12/21 05:52:22;;;;;;;29.25;13.60;;;77.20;1792.00;;;;;;5093857;28;20024;-59
2021/12/21 05:54:49;;;;;;;83.45;30.60;;;77.20;1792.00;;;;;;5093729;28;20469;-60
2021/12/21 05:57:15;;;;;;;65.15;31.42;;;77.10;1792.00;;;;;;5094351;28;20031;-59
2021/12/21 05:59:41;;;;;;;46.00;21.42;;;77.10;1817.60;;;;;;5093498;28;20032;-60
2021/12/21 06:02:07;;;;;;;44.15;20.17;;;77.10;1817.60;;;;;;5094205;28;20051;-59
2021/12/21 06:04:33;;;;;;;39.20;18.63;;;77.10;1792.00;;;;;;5093174;28;20024;-59
2021/12/21 06:06:59;;;;;;;35.83;15.63;;;77.10;1792.00;;;;;;5093236;28;20153;-60
2021/12/21 06:09:26;;;;;;;48.22;18.73;;;77.10;1817.60;;;;;;5097426;28;20456;-60
2021/12/21 06:12:06;;;;;;;79.63;28.23;;;77.00;1817.60;;;;;;5097880;28;20454;-60
2021/12/21 06:15:18;;;;;;;65.32;28.17;;;77.00;1817.60;;;;;;5097682;28;20044;-61
2021/12/21 06:25:58;;;;;;;76.25;32.42;;;77.00;1817.60;;;;;;4996191;28;20561;-59
2021/12/21 06:28:24;;;;;;;72.72;31.60;;;77.00;1817.60;;;;;;4995712;28;20125;-59
2021/12/21 06:30:51;;;;;;;87.95;39.40;;;77.00;1817.60;;;;;;4995716;28;20022;-59
2021/12/21 06:33:17;;;;;;;53.40;25.92;;;77.00;1817.60;;;;;;4995587;28;20058;-59
2021/12/21 06:35:43;;;;;;;50.75;22.52;;;76.90;1843.20;;;;;;4995439;28;20427;-62
2021/12/21 06:38:10;;;;;;;40.65;19.63;;;77.00;1817.60;;;;;;4995322;28;20041;-60
2021/12/21 06:40:36;;;;;;;55.08;23.17;;;77.00;1817.60;;;;;;4995199;28;20034;-63
2021/12/21 06:43:03;;;;;;;70.70;24.23;;;77.00;1817.60;;;;;;4994968;28;20089;-60
2021/12/21 06:53:26;;;;;;;81.47;26.65;;;77.00;1817.60;;;;;;4995162;28;20495;-59
2021/12/21 06:55:52;;;;;;;68.60;25.98;;;76.90;1817.60;;;;;;4994664;28;20052;-61
2021/12/21 06:58:18;;;;;;;47.38;21.40;;;76.90;1817.60;;;;;;4994551;28;20121;-61
2021/12/21 07:00:46;;;;;;;52.38;23.70;;;77.00;1817.60;;;;;;5076133;28;20482;-60
2021/12/21 07:03:13;;;;;;;53.50;25.40;;;76.90;1817.60;;;;;;5096500;28;20016;-62
2021/12/21 07:05:40;;;;;;;55.00;23.65;;;77.00;1817.60;;;;;;5096494;28;20024;-61
2021/12/21 07:08:11;;;;;;;42.50;20.92;;;77.00;1817.60;;;;;;5096698;28;20035;-59
2021/12/21 07:10:38;;;;;;;50.90;24.27;;;77.00;1817.60;;;;;;5096611;28;20028;-58
2021/12/21 07:18:34;;;;;;;62.08;29.63;;;77.00;1843.20;;;;;;5089231;28;20397;-62
2021/12/21 07:21:01;;;;;;;57.08;27.30;;;77.00;1843.20;;;;;;5075955;28;20103;-61
2021/12/21 07:23:28;;;;;;;61.97;30.70;;;77.00;1843.20;;;;;;5076138;28;20044;-60
2021/12/21 07:25:54;;;;;;;58.38;26.83;;;77.00;1843.20;;;;;;5076121;28;20400;-59
2021/12/21 07:28:20;;;;;;;69.03;30.95;;;77.00;1843.20;;;;;;5075917;28;20043;-63
2021/12/21 07:30:49;;;;;;;88.45;34.03;;;77.10;1920.00;;;;;;5075936;28;20155;-60
2021/12/21 07:33:19;;;;;;;89.35;33.63;;;77.10;1843.20;;;;;;5075841;28;20387;-61
2021/12/21 07:35:45;;;;;;;83.45;32.13;;;77.10;1843.20;;;;;;5075596;28;20036;-64
2021/12/21 07:38:11;;;;;;;75.03;31.40;;;77.10;1868.80;;;;;;5075653;28;20033;-64
2021/12/21 07:40:38;;;;;;;72.40;29.95;;;77.20;1843.20;;;;;;5075636;28;20032;-61
2021/12/21 07:43:04;;;;;;;69.75;30.73;;;77.10;1843.20;;;;;;5075556;28;20492;-61
2021/12/21 07:45:30;;;;;;;69.85;30.60;;;77.20;1843.20;;;;;;5075733;28;20033;-61
2021/12/21 07:47:56;;;;;;;65.50;30.60;;;77.20;1843.20;;;;;;5075515;28;20489;-61
2021/12/21 07:50:22;;;;;;;68.60;29.42;;;77.20;1868.80;;;;;;5075099;28;20024;-60
2021/12/21 07:52:50;;;;;;;68.13;31.15;;;77.20;1868.80;;;;;;5075523;28;20427;-60
2021/12/21 07:55:16;;;;;;;52.45;26.63;;;77.20;1868.80;;;;;;5075440;28;20025;-64
2021/12/21 07:57:41;;;;;;;57.42;23.80;;;77.20;1868.80;;;;;;5075428;28;20029;-63
2021/12/21 08:00:08;;;;;;;50.40;22.85;;;77.20;1868.80;;;;;;5075323;28;20463;-60
2021/12/21 08:02:34;;;;;;;55.10;21.27;;;77.20;1868.80;;;;;;5075251;28;20032;-63
2021/12/21 08:05:05;;;;;;;46.03;20.40;;;77.30;1868.80;;;;;;5075351;28;20028;-61
2021/12/21 08:07:35;;;;;;;47.25;21.60;;;77.30;1868.80;;;;;;5074908;28;20044;-64
2021/12/21 08:10:16;;;;;;;58.63;27.05;;;77.20;1868.80;;;;;;5075354;28;20028;-64
2021/12/21 08:12:43;;;;;;;43.42;23.02;;;77.30;1868.80;;;;;;5075178;28;20134;-61
2021/12/21 08:15:09;;;;;;;38.55;19.77;;;77.30;1868.80;;;;;;5074939;28;20024;-63
2021/12/21 08:17:35;;;;;;;34.83;18.38;;;77.40;1868.80;;;;;;5074987;28;20099;-61
2021/12/21 08:20:00;;;;;;;31.23;17.25;;;77.30;1868.80;;;;;;5075112;28;20052;-61
2021/12/21 08:22:26;;;;;;;35.42;17.00;;;77.30;1868.80;;;;;;5075161;28;20052;-62
2021/12/21 08:24:52;;;;;;;38.00;18.50;;;77.40;1868.80;;;;;;5074881;28;20027;-61
2021/12/21 08:27:18;;;;;;;37.03;19.33;;;77.40;1868.80;;;;;;5074756;28;20035;-64
2021/12/21 08:29:43;;;;;;;42.58;20.08;;;77.40;1843.20;;;;;;5074855;28;20021;-61
2021/12/21 08:32:09;;;;;;;39.08;20.88;;;77.50;1843.20;;;;;;5074036;28;20059;-63
2021/12/21 08:34:35;;;;;;;51.78;29.08;;;77.50;1843.20;;;;;;5074764;28;20032;-62
2021/12/21 08:37:01;;;;;;;59.53;32.83;;;77.50;1843.20;;;;;;5074211;28;20036;-64
2021/12/21 08:39:27;;;;;;;57.22;31.75;;;77.50;1868.80;;;;;;5074641;28;20082;-62
2021/12/21 08:41:58;;;;;;;52.95;30.75;;;77.50;1843.20;;;;;;5075188;28;20458;-62
2021/12/21 08:44:25;;;;;;;43.97;26.15;;;77.50;1868.80;;;;;;5074189;28;20052;-64
2021/12/21 08:46:52;;;;;;;45.97;24.90;;;77.50;1868.80;;;;;;5073990;28;20071;-63
2021/12/21 08:49:18;;;;;;;68.65;31.98;;;77.60;1843.20;;;;;;5074512;28;20028;-62
2021/12/21 08:51:44;;;;;;;84.03;33.30;;;77.60;1843.20;;;;;;5074475;28;20027;-64
2021/12/21 08:54:11;;;;;;;113.38;41.10;;;77.60;1868.80;;;;;;5074378;28;20369;-64
2021/12/21 08:56:37;;;;;;;87.55;37.85;;;77.50;1843.20;;;;;;5074224;28;20508;-63
2021/12/21 08:59:02;;;;;;;50.50;24.02;;;77.50;1843.20;;;;;;5074292;28;20036;-63
2021/12/21 09:01:28;;;;;;;49.13;21.10;;;77.50;1843.20;;;;;;5073942;28;20086;-64
2021/12/21 09:03:55;;;;;;;34.55;17.80;;;77.50;1843.20;;;;;;5073956;28;20541;-62
2021/12/21 09:06:21;;;;;;;42.95;20.60;;;77.50;1843.20;;;;;;5073799;28;20115;-63
2021/12/21 09:08:47;;;;;;;48.08;23.70;;;77.50;1868.80;;;;;;5073984;28;20115;-61
2021/12/21 09:11:15;;;;;;;34.92;17.15;;;77.50;1843.20;;;;;;5073753;28;20036;-64
2021/12/21 09:13:41;;;;;;;33.63;18.25;;;77.50;1868.80;;;;;;5073822;28;20070;-64
2021/12/21 09:16:07;;;;;;;33.97;18.90;;;77.50;1843.20;;;;;;5074233;28;20024;-63
2021/12/21 09:18:32;;;;;;;44.17;22.55;;;77.60;1843.20;;;;;;5073779;28;20021;-63
2021/12/21 09:20:58;;;;;;;36.85;19.00;;;77.60;1868.80;;;;;;5074068;28;20070;-64
2021/12/21 09:23:24;;;;;;;36.53;18.80;;;77.60;1843.20;;;;;;5073925;28;20178;-64
2021/12/21 09:25:50;;;;;;;37.22;19.27;;;77.60;1843.20;;;;;;5073914;28;20082;-60
2021/12/21 09:28:15;;;;;;;33.50;19.15;;;77.60;1843.20;;;;;;5073817;28;20596;-62
2021/12/21 09:30:41;;;;;;;40.22;20.77;;;77.60;1817.60;;;;;;5073825;28;20112;-64
2021/12/21 09:33:07;;;;;;;76.28;35.28;;;77.60;1817.60;;;;;;5073954;28;20029;-61
2021/12/21 09:35:33;;;;;;;76.93;36.10;;;77.60;1843.20;;;;;;5073757;28;20126;-62
2021/12/21 09:37:58;;;;;;;95.40;45.80;;;77.60;1817.60;;;;;;5073581;28;20490;-61
2021/12/21 09:40:30;;;;;;;120.75;53.50;;;77.70;1843.20;;;;;;5073719;28;20021;-64
2021/12/21 09:42:58;;;;;;;119.78;52.53;;;77.70;1817.60;;;;;;5073536;28;20032;-63
2021/12/21 09:45:24;;;;;;;94.10;40.45;;;102.40;1817.60;;;;;;5073479;28;20023;-63
2021/12/21 09:47:50;;;;;;;86.25;35.67;;;102.40;1817.60;;;;;;5073678;28;20089;-64
2021/12/21 09:50:17;;;;;;;86.05;34.83;;;77.70;1817.60;;;;;;5073615;28;20474;-64
2021/12/21 09:52:44;;;;;;;63.22;26.33;;;77.70;1817.60;;;;;;5073724;28;20565;-64
2021/12/21 09:55:12;;;;;;;54.58;27.02;;;77.70;1817.60;;;;;;5073785;28;20025;-60
2021/12/21 09:57:38;;;;;;;66.15;30.35;;;77.70;1817.60;;;;;;5073449;28;20024;-64
2021/12/21 10:00:17;;;;;;;86.53;38.22;;;77.60;1817.60;;;;;;5073139;28;20048;-61
2021/12/21 10:02:43;;;;;;;104.72;46.15;;;77.70;1843.20;;;;;;5073394;28;20086;-61
2021/12/21 10:05:13;;;;;;;92.95;39.55;;;77.70;1868.80;;;;;;5054727;28;20470;-64
2021/12/21 10:07:39;;;;;;;95.75;44.55;;;102.40;1868.80;;;;;;5055317;28;20044;-64
2021/12/21 10:10:11;;;;;;;66.00;31.08;;;102.60;1868.80;;;;;;5073048;28;20029;-64
2021/12/21 10:12:42;;;;;;;46.92;24.05;;;102.60;1868.80;;;;;;5073440;28;20078;-64
2021/12/21 10:15:10;;;;;;;31.15;16.92;;;102.60;1894.40;;;;;;5073188;28;20062;-64
2021/12/21 10:17:36;;;;;;;31.45;16.45;;;102.70;1843.20;;;;;;5073403;28;20028;-62
2021/12/21 10:20:08;;;;;;;27.40;13.25;;;102.80;1894.40;;;;;;5073595;28;20056;-62
2021/12/21 10:22:34;;;;;;;17.05;10.20;;;103.00;1868.80;;;;;;5073375;28;20043;-61
2021/12/21 10:25:00;;;;;;;22.13;12.15;;;103.00;1817.60;;;;;;5073295;28;20097;-62
2021/12/21 10:27:27;;;;;;;21.88;10.85;;;103.10;1817.60;;;;;;5073641;28;20223;-61
2021/12/21 10:30:02;;;;;;;26.25;15.10;;;103.10;1817.60;;;;;;5092031;28;20039;-62
2021/12/21 10:32:31;;;;;;;26.50;13.90;;;103.10;1740.80;;;;;;5082942;28;20028;-61
2021/12/21 10:35:07;;;;;;;23.75;13.15;;;103.20;1740.80;;;;;;5082588;28;20029;-60
2021/12/21 10:37:39;;;;;;;31.88;15.00;;;103.20;1740.80;;;;;;5082810;28;20385;-60
2021/12/21 10:40:23;;;;;;;23.92;12.57;;;103.30;1715.20;;;;;;5070091;28;20025;-63
2021/12/21 10:42:58;;;;;;;29.48;14.73;;;103.30;1689.60;;;;;;5082791;28;20023;-62
2021/12/21 10:45:26;;;;;;;22.13;12.48;;;103.30;1689.60;;;;;;5083009;28;20406;-62
2021/12/21 10:47:52;;;;;;;93.03;47.28;;;103.30;1689.60;;;;;;5082285;28;20037;-64
2021/12/21 10:50:19;;;;;;;115.85;56.65;;;128.00;1868.80;;;;;;5080509;28;20575;-63
2021/12/21 10:52:51;;;;;;;193.93;105.63;;;128.60;1971.20;;;;;;5082266;28;20070;-66
2021/12/21 10:55:23;;;;;;;65.80;31.08;;;153.80;2124.80;;;;;;5086169;28;20031;-69
2021/12/21 10:57:59;;;;;;;59.47;30.52;;;154.20;1971.20;;;;;;5086366;28;20150;-63
2021/12/21 11:00:24;;;;;;;217.93;129.23;;;154.00;1587.20;;;;;;5086098;28;20048;-61
2021/12/21 11:02:54;;;;;;;105.82;77.13;;;153.80;1587.20;;;;;;5085339;28;20117;-60
2021/12/21 11:05:20;;;;;;;119.55;75.55;;;153.70;1587.20;;;;;;5084193;28;20382;-61
2021/12/21 11:08:06;;;;;;;110.05;67.75;;;153.60;1612.80;;;;;;5085651;28;20032;-61
2021/12/21 11:10:35;;;;;;;46.63;25.48;;;153.60;1612.80;;;;;;5085923;28;20035;-61
2021/12/21 11:13:12;;;;;;;62.53;36.80;;;128.90;1612.80;;;;;;5085931;28;20039;-61
2021/12/21 11:15:40;;;;;;;23.35;13.98;;;128.90;1612.80;;;;;;5083220;28;20069;-62
2021/12/21 11:18:07;;;;;;;32.08;14.02;;;128.80;1587.20;;;;;;5084598;28;20044;-62
2021/12/21 11:20:36;;;;;;;26.55;12.65;;;128.80;1587.20;;;;;;5083666;28;20028;-61
2021/12/21 11:23:04;;;;;;;21.38;12.90;;;128.70;1612.80;;;;;;5085176;28;20114;-62
2021/12/21 11:25:32;;;;;;;17.27;9.93;;;128.80;1612.80;;;;;;5085204;28;20080;-62
2021/12/21 11:28:00;;;;;;;34.83;21.20;;;128.80;1612.80;;;;;;5083310;28;20029;-60
2021/12/21 11:30:26;;;;;;;33.92;22.67;;;128.80;1612.80;;;;;;5084934;28;20016;-62
2021/12/21 11:32:53;;;;;;;25.83;15.43;;;128.80;1587.20;;;;;;5085403;28;20031;-58
2021/12/21 11:37:51;;;;;;;36.70;11.45;;;153.60;1587.20;;;;;;5084462;28;20023;-61
2021/12/21 11:40:21;;;;;;;38.65;19.15;;;153.60;1612.80;;;;;;5085429;28;20024;-62
2021/12/21 11:42:50;;;;;;;38.13;20.75;;;153.60;1587.20;;;;;;5084344;28;20103;-61
2021/12/21 11:45:28;;;;;;;41.50;21.98;;;153.60;1587.20;;;;;;5085718;28;20023;-61
2021/12/21 11:48:03;;;;;;;22.17;13.38;;;153.60;1587.20;;;;;;5085317;28;20035;-61
2021/12/21 11:50:30;;;;;;;853.67;99.07;;;153.60;1638.40;;;;;;5085918;28;20020;-64
2021/12/21 11:53:02;;;;;;;1999.90;255.40;;;153.70;1612.80;;;;;;5085364;28;20051;-60
2021/12/21 11:55:30;;;;;;;938.97;120.10;;;153.90;1612.80;;;;;;5084249;28;20025;-60
2021/12/21 11:57:59;;;;;;;454.00;69.72;;;154.00;1612.80;;;;;;5082795;28;20024;-61
2021/12/21 12:00:28;;;;;;;338.63;44.30;;;154.00;1612.80;;;;;;5084237;28;20416;-60
2021/12/21 12:03:06;;;;;;;201.65;31.33;;;154.10;1612.80;;;;;;5084784;28;20021;-62
2021/12/21 12:05:34;;;;;;;166.70;37.92;;;154.20;1612.80;;;;;;5083693;28;20024;-60
2021/12/21 12:08:05;;;;;;;121.72;38.65;;;154.20;1587.20;;;;;;5084902;28;20036;-64
2021/12/21 12:10:32;;;;;;;143.05;58.00;;;154.30;1561.60;;;;;;5084639;28;20029;-62
2021/12/21 12:13:17;;;;;;;147.23;54.92;;;154.10;1536.00;;;;;;5082625;28;20024;-60
2021/12/21 12:15:58;;;;;;;94.57;49.17;;;154.10;1638.40;;;;;;5084866;28;20024;-63
2021/12/21 12:18:50;;;;;;;52.22;27.20;;;154.20;1561.60;;;;;;5091958;28;20374;-64
2021/12/21 12:21:20;;;;;;;27.90;13.55;;;154.10;1561.60;;;;;;5095106;28;20473;-64
2021/12/21 12:23:51;;;;;;;38.15;19.13;;;154.00;1561.60;;;;;;5094681;28;20039;-63
2021/12/21 12:26:25;;;;;;;37.53;17.73;;;153.90;1561.60;;;;;;5094933;28;20020;-62
2021/12/21 12:28:51;;;;;;;39.67;22.60;;;153.90;1561.60;;;;;;5094827;28;20047;-62
2021/12/21 12:31:35;;;;;;;25.55;16.17;;;153.80;1561.60;;;;;;5094614;28;20027;-62
2021/12/21 12:34:02;;;;;;;40.80;18.13;;;153.80;1561.60;;;;;;5094631;28;20050;-63
2021/12/21 12:36:50;;;;;;;37.13;17.58;;;153.80;1561.60;;;;;;5094372;28;20040;-61
2021/12/21 12:39:28;;;;;;;100.70;55.33;;;153.70;1561.60;;;;;;5095178;28;20035;-63
2021/12/21 12:42:03;;;;;;;38.45;22.48;;;153.60;1587.20;;;;;;5091265;28;20111;-62
2021/12/21 12:44:29;;;;;;;39.17;20.33;;;153.60;1587.20;;;;;;5081633;28;20042;-61
2021/12/21 12:46:59;;;;;;;40.10;16.13;;;153.60;1587.20;;;;;;5078161;28;20531;-62
2021/12/21 12:49:27;;;;;;;24.65;11.20;;;153.70;1612.80;;;;;;5083144;28;20035;-62
2021/12/21 12:52:20;;;;;;;48.80;21.95;;;153.70;1587.20;;;;;;5093157;28;20024;-61
2021/12/21 12:54:48;;;;;;;61.50;32.97;;;153.70;1561.60;;;;;;5086606;28;20032;-62
2021/12/21 12:57:38;;;;;;;50.08;26.13;;;153.60;1561.60;;;;;;5079958;28;20174;-62
2021/12/21 13:00:13;;;;;;;62.05;34.80;;;153.60;1587.20;;;;;;5080358;28;20351;-61
2021/12/21 13:02:50;;;;;;;;;;;153.60;1587.20;;;;;;5085464;28;20020;-61
2021/12/21 13:05:15;;;;;;;262.50;109.68;;;153.60;1587.20;;;;;;5084621;28;19905;-62
2021/12/21 13:07:44;;;;;;;209.68;89.88;;;153.60;1587.20;;;;;;5082223;28;20461;-62
2021/12/21 13:10:10;;;;;;;374.52;157.95;;;153.70;1587.20;;;;;;5081377;28;20032;-63
2021/12/21 13:12:37;;;;;;;264.45;109.00;;;153.80;1587.20;;;;;;5073848;28;20071;-61
2021/12/21 13:15:05;;;;;;;195.40;82.95;;;153.90;1587.20;;;;;;5073812;28;20028;-61
2021/12/21 13:17:31;;;;;;;403.02;195.35;;;154.00;1612.80;;;;;;5073453;28;20161;-63
2021/12/21 13:19:57;;;;;;;278.27;125.40;;;154.10;1587.20;;;;;;5073681;28;20044;-62
2021/12/21 13:22:27;;;;;;;225.32;110.03;;;154.20;1561.60;;;;;;5073990;28;20020;-62
2021/12/21 13:24:54;;;;;;;224.55;85.82;;;154.20;1561.60;;;;;;5073904;28;20415;-62
2021/12/21 13:27:27;;;;;;;163.05;69.10;;;154.30;1536.00;;;;;;5074175;28;20039;-64